sensor_id;sensor_type;location;lat;lon;timestamp;pressure;altitude;pressure_sealevel;temperature;humidity
22938;BME280;11634;42.734;23.298;2022-08-21T00:00:12;94634.06;;;18.82;100.00
22938;BME280;11634;42.734;23.298;2022-08-21T00:02:47;94635.84;;;18.68;100.00
22938;BME280;11634;42.734;23.298;2022-08-21T00:05:13;94624.50;;;18.68;100.00
22938;BME280;11634;42.734;23.298;2022-08-21T00:07:39;94625.72;;;18.72;100.00
22938;BME280;11634;42.734;23.298;2022-08-21T00:10:05;94611.13;;;18.69;100.00
22938;BME280;11634;42.734;23.298;2022-08-21T00:12:31;94629.41;;;18.77;100.00
22938;BME280;11634;42.734;23.298;2022-08-21T00:14:57;94620.28;;;18.80;100.00
22938;BME280;11634;42.734;23.298;2022-08-21T00:17:22;94614.38;;;18.78;100.00
22938;BME280;11634;42.734;23.298;2022-08-21T00:19:48;94613.38;;;18.79;100.00
22938;BME280;11634;42.734;23.298;2022-08-21T00:22:14;94597.53;;;18.66;100.00
22938;BME280;11634;42.734;23.298;2022-08-21T00:24:42;94618.44;;;18.80;100.00
22938;BME280;11634;42.734;23.298;2022-08-21T00:27:08;94625.19;;;18.89;100.00
22938;BME280;11634;42.734;23.298;2022-08-21T00:29:34;94607.09;;;18.93;100.00
22938;BME280;11634;42.734;23.298;2022-08-21T00:31:59;94604.31;;;18.94;100.00
22938;BME280;11634;42.734;23.298;2022-08-21T00:34:25;94614.63;;;18.89;100.00
22938;BME280;11634;42.734;23.298;2022-08-21T00:36:51;94598.59;;;18.91;100.00
22938;BME280;11634;42.734;23.298;2022-08-21T00:39:17;94608.53;;;18.89;100.00
22938;BME280;11634;42.734;23.298;2022-08-21T00:41:43;94602.22;;;18.77;100.00
22938;BME280;11634;42.734;23.298;2022-08-21T00:44:12;94592.47;;;18.77;100.00
22938;BME280;11634;42.734;23.298;2022-08-21T00:46:41;94604.06;;;18.83;100.00
22938;BME280;11634;42.734;23.298;2022-08-21T00:49:08;94606.91;;;18.81;100.00
22938;BME280;11634;42.734;23.298;2022-08-21T00:51:45;94616.06;;;18.92;100.00
22938;BME280;11634;42.734;23.298;2022-08-21T00:54:13;94613.19;;;18.87;100.00
22938;BME280;11634;42.734;23.298;2022-08-21T00:56:39;94596.56;;;18.86;100.00
22938;BME280;11634;42.734;23.298;2022-08-21T00:59:05;94598.00;;;18.95;100.00
22938;BME280;11634;42.734;23.298;2022-08-21T01:01:32;94611.41;;;19.00;100.00
22938;BME280;11634;42.734;23.298;2022-08-21T01:03:58;94594.72;;;18.87;100.00
22938;BME280;11634;42.734;23.298;2022-08-21T01:06:26;94589.44;;;18.80;100.00
22938;BME280;11634;42.734;23.298;2022-08-21T01:08:53;94578.88;;;18.67;100.00
22938;BME280;11634;42.734;23.298;2022-08-21T01:11:20;94580.88;;;18.65;100.00
22938;BME280;11634;42.734;23.298;2022-08-21T01:13:46;94601.03;;;18.79;100.00
22938;BME280;11634;42.734;23.298;2022-08-21T01:16:15;94557.91;;;18.40;100.00
22938;BME280;11634;42.734;23.298;2022-08-21T01:18:45;94585.34;;;18.65;100.00
22938;BME280;11634;42.734;23.298;2022-08-21T01:21:14;94570.53;;;18.51;100.00
22938;BME280;11634;42.734;23.298;2022-08-21T01:23:43;94584.13;;;18.61;100.00
22938;BME280;11634;42.734;23.298;2022-08-21T01:26:10;94564.84;;;18.54;100.00
22938;BME280;11634;42.734;23.298;2022-08-21T01:28:54;94560.75;;;18.45;100.00
22938;BME280;11634;42.734;23.298;2022-08-21T01:31:25;94570.09;;;18.48;100.00
22938;BME280;11634;42.734;23.298;2022-08-21T01:33:51;94590.19;;;18.55;100.00
22938;BME280;11634;42.734;23.298;2022-08-21T01:36:17;94574.19;;;18.57;100.00
22938;BME280;11634;42.734;23.298;2022-08-21T01:38:43;94580.03;;;18.52;100.00
22938;BME280;11634;42.734;23.298;2022-08-21T01:41:08;94582.47;;;18.47;100.00
22938;BME280;11634;42.734;23.298;2022-08-21T01:43:34;94568.06;;;18.43;100.00
22938;BME280;11634;42.734;23.298;2022-08-21T01:46:00;94570.06;;;18.41;100.00
22938;BME280;11634;42.734;23.298;2022-08-21T01:48:25;94583.69;;;18.51;100.00
22938;BME280;11634;42.734;23.298;2022-08-21T01:50:51;94587.31;;;18.44;100.00
22938;BME280;11634;42.734;23.298;2022-08-21T01:53:16;94591.97;;;18.42;100.00
22938;BME280;11634;42.734;23.298;2022-08-21T01:55:43;94596.03;;;18.38;100.00
22938;BME280;11634;42.734;23.298;2022-08-21T01:58:09;94584.03;;;18.35;100.00
22938;BME280;11634;42.734;23.298;2022-08-21T02:00:34;94587.88;;;18.33;100.00
22938;BME280;11634;42.734;23.298;2022-08-21T02:03:00;94580.16;;;18.31;100.00
22938;BME280;11634;42.734;23.298;2022-08-21T02:05:26;94585.44;;;18.31;100.00
22938;BME280;11634;42.734;23.298;2022-08-21T02:07:54;94585.00;;;18.28;100.00
22938;BME280;11634;42.734;23.298;2022-08-21T02:10:30;94597.97;;;18.23;100.00
22938;BME280;11634;42.734;23.298;2022-08-21T02:12:57;94588.53;;;18.08;100.00
22938;BME280;11634;42.734;23.298;2022-08-21T02:15:24;94588.72;;;18.06;100.00
22938;BME280;11634;42.734;23.298;2022-08-21T02:17:53;94593.44;;;18.10;100.00
22938;BME280;11634;42.734;23.298;2022-08-21T02:20:24;94595.75;;;18.20;100.00
22938;BME280;11634;42.734;23.298;2022-08-21T02:22:51;94583.78;;;18.17;100.00
22938;BME280;11634;42.734;23.298;2022-08-21T02:25:18;94586.22;;;18.19;100.00
22938;BME280;11634;42.734;23.298;2022-08-21T02:27:45;94597.06;;;18.09;100.00
22938;BME280;11634;42.734;23.298;2022-08-21T02:30:20;94598.72;;;18.10;100.00
22938;BME280;11634;42.734;23.298;2022-08-21T02:32:47;94574.31;;;18.02;100.00
22938;BME280;11634;42.734;23.298;2022-08-21T02:35:13;94600.09;;;18.13;100.00
22938;BME280;11634;42.734;23.298;2022-08-21T02:37:47;94601.94;;;18.12;100.00
22938;BME280;11634;42.734;23.298;2022-08-21T02:40:15;94595.03;;;18.05;100.00
22938;BME280;11634;42.734;23.298;2022-08-21T02:42:42;94600.72;;;18.08;100.00
22938;BME280;11634;42.734;23.298;2022-08-21T02:45:10;94597.03;;;18.03;100.00
22938;BME280;11634;42.734;23.298;2022-08-21T02:47:35;94601.50;;;18.03;100.00
22938;BME280;11634;42.734;23.298;2022-08-21T02:50:01;94604.66;;;18.19;100.00
22938;BME280;11634;42.734;23.298;2022-08-21T02:52:27;94605.03;;;18.16;100.00
22938;BME280;11634;42.734;23.298;2022-08-21T02:54:52;94612.88;;;18.09;100.00
22938;BME280;11634;42.734;23.298;2022-08-21T02:57:18;94599.91;;;18.08;100.00
22938;BME280;11634;42.734;23.298;2022-08-21T02:59:43;94586.69;;;18.02;100.00
22938;BME280;11634;42.734;23.298;2022-08-21T03:02:09;94604.19;;;18.09;100.00
22938;BME280;11634;42.734;23.298;2022-08-21T03:04:36;94603.78;;;18.12;100.00
22938;BME280;11634;42.734;23.298;2022-08-21T03:07:02;94601.19;;;18.18;100.00
22938;BME280;11634;42.734;23.298;2022-08-21T03:09:27;94604.06;;;18.23;100.00
22938;BME280;11634;42.734;23.298;2022-08-21T03:11:53;94596.53;;;18.20;100.00
22938;BME280;11634;42.734;23.298;2022-08-21T03:14:19;94563.44;;;18.11;100.00
22938;BME280;11634;42.734;23.298;2022-08-21T03:16:45;94605.75;;;18.44;100.00
22938;BME280;11634;42.734;23.298;2022-08-21T03:19:11;94614.09;;;18.47;100.00
22938;BME280;11634;42.734;23.298;2022-08-21T03:21:37;94603.53;;;18.41;100.00
22938;BME280;11634;42.734;23.298;2022-08-21T03:24:03;94599.69;;;18.43;100.00
22938;BME280;11634;42.734;23.298;2022-08-21T03:26:30;94598.88;;;18.49;100.00
22938;BME280;11634;42.734;23.298;2022-08-21T03:28:56;94609.44;;;18.49;100.00
22938;BME280;11634;42.734;23.298;2022-08-21T03:31:23;94592.56;;;18.37;100.00
22938;BME280;11634;42.734;23.298;2022-08-21T03:33:51;94605.34;;;18.47;100.00
22938;BME280;11634;42.734;23.298;2022-08-21T03:36:20;94595.56;;;18.28;100.00
22938;BME280;11634;42.734;23.298;2022-08-21T03:38:45;94604.88;;;18.30;100.00
22938;BME280;11634;42.734;23.298;2022-08-21T03:41:11;94612.19;;;18.28;100.00
22938;BME280;11634;42.734;23.298;2022-08-21T03:43:36;94596.31;;;18.15;100.00
22938;BME280;11634;42.734;23.298;2022-08-21T03:46:05;94601.22;;;18.25;100.00
22938;BME280;11634;42.734;23.298;2022-08-21T03:48:31;94602.06;;;18.25;100.00
22938;BME280;11634;42.734;23.298;2022-08-21T03:50:57;94580.50;;;18.15;100.00
22938;BME280;11634;42.734;23.298;2022-08-21T03:53:22;94603.66;;;18.26;100.00
22938;BME280;11634;42.734;23.298;2022-08-21T03:55:50;94596.97;;;18.30;100.00
22938;BME280;11634;42.734;23.298;2022-08-21T03:58:19;94598.78;;;18.23;100.00
22938;BME280;11634;42.734;23.298;2022-08-21T04:00:49;94612.22;;;18.35;100.00
22938;BME280;11634;42.734;23.298;2022-08-21T04:03:16;94579.22;;;18.05;100.00
22938;BME280;11634;42.734;23.298;2022-08-21T04:05:42;94617.22;;;18.23;100.00
22938;BME280;11634;42.734;23.298;2022-08-21T04:08:08;94592.03;;;18.14;100.00
22938;BME280;11634;42.734;23.298;2022-08-21T04:10:36;94620.94;;;18.35;100.00
22938;BME280;11634;42.734;23.298;2022-08-21T04:13:03;94616.88;;;18.33;100.00
22938;BME280;11634;42.734;23.298;2022-08-21T04:15:29;94607.75;;;18.35;100.00
22938;BME280;11634;42.734;23.298;2022-08-21T04:17:55;94632.13;;;18.44;100.00
22938;BME280;11634;42.734;23.298;2022-08-21T04:20:21;94615.09;;;18.46;100.00
22938;BME280;11634;42.734;23.298;2022-08-21T04:22:48;94622.78;;;18.41;100.00
22938;BME280;11634;42.734;23.298;2022-08-21T04:25:16;94597.44;;;18.40;100.00
22938;BME280;11634;42.734;23.298;2022-08-21T04:27:43;94590.75;;;18.38;100.00
22938;BME280;11634;42.734;23.298;2022-08-21T04:30:09;94596.66;;;18.46;100.00
22938;BME280;11634;42.734;23.298;2022-08-21T04:32:38;94605.44;;;18.72;100.00
22938;BME280;11634;42.734;23.298;2022-08-21T04:35:08;94607.50;;;18.77;100.00
22938;BME280;11634;42.734;23.298;2022-08-21T04:37:35;94604.06;;;18.83;100.00
22938;BME280;11634;42.734;23.298;2022-08-21T04:40:00;94617.66;;;18.93;100.00
22938;BME280;11634;42.734;23.298;2022-08-21T04:42:27;94614.03;;;19.00;100.00
22938;BME280;11634;42.734;23.298;2022-08-21T04:44:54;94616.91;;;19.12;100.00
22938;BME280;11634;42.734;23.298;2022-08-21T04:47:23;94620.78;;;19.16;100.00
22938;BME280;11634;42.734;23.298;2022-08-21T04:49:49;94619.97;;;19.15;100.00
22938;BME280;11634;42.734;23.298;2022-08-21T04:52:19;94614.28;;;19.12;100.00
22938;BME280;11634;42.734;23.298;2022-08-21T04:54:47;94628.28;;;19.19;100.00
22938;BME280;11634;42.734;23.298;2022-08-21T04:57:14;94602.09;;;19.17;100.00
22938;BME280;11634;42.734;23.298;2022-08-21T04:59:46;94625.09;;;19.29;100.00
22938;BME280;11634;42.734;23.298;2022-08-21T05:02:13;94619.59;;;19.31;100.00
22938;BME280;11634;42.734;23.298;2022-08-21T05:04:46;94616.75;;;19.52;100.00
22938;BME280;11634;42.734;23.298;2022-08-21T05:07:20;94633.22;;;19.47;100.00
22938;BME280;11634;42.734;23.298;2022-08-21T05:09:47;94628.72;;;19.48;100.00
22938;BME280;11634;42.734;23.298;2022-08-21T05:12:13;94636.03;;;19.59;100.00
22938;BME280;11634;42.734;23.298;2022-08-21T05:14:39;94598.69;;;19.55;100.00
22938;BME280;11634;42.734;23.298;2022-08-21T05:17:05;94630.97;;;19.89;100.00
22938;BME280;11634;42.734;23.298;2022-08-21T05:19:31;94634.00;;;19.99;100.00
22938;BME280;11634;42.734;23.298;2022-08-21T05:21:56;94648.66;;;20.02;100.00
22938;BME280;11634;42.734;23.298;2022-08-21T05:24:23;94635.63;;;19.94;100.00
22938;BME280;11634;42.734;23.298;2022-08-21T05:26:49;94637.22;;;20.14;100.00
22938;BME280;11634;42.734;23.298;2022-08-21T05:29:16;94652.28;;;20.14;100.00
22938;BME280;11634;42.734;23.298;2022-08-21T05:31:42;94651.66;;;20.25;100.00
22938;BME280;11634;42.734;23.298;2022-08-21T05:34:08;94645.56;;;20.18;100.00
22938;BME280;11634;42.734;23.298;2022-08-21T05:36:33;94634.41;;;20.03;100.00
22938;BME280;11634;42.734;23.298;2022-08-21T05:38:59;94646.22;;;20.00;100.00
22938;BME280;11634;42.734;23.298;2022-08-21T05:41:25;94647.81;;;20.14;100.00
22938;BME280;11634;42.734;23.298;2022-08-21T05:43:50;94638.00;;;20.28;100.00
22938;BME280;11634;42.734;23.298;2022-08-21T05:46:16;94632.28;;;20.43;100.00
22938;BME280;11634;42.734;23.298;2022-08-21T05:48:42;94636.72;;;20.49;100.00
22938;BME280;11634;42.734;23.298;2022-08-21T05:51:11;94642.47;;;20.33;100.00
22938;BME280;11634;42.734;23.298;2022-08-21T05:53:38;94641.88;;;20.25;100.00
22938;BME280;11634;42.734;23.298;2022-08-21T05:56:04;94646.09;;;20.45;100.00
22938;BME280;11634;42.734;23.298;2022-08-21T05:58:31;94648.88;;;20.63;100.00
22938;BME280;11634;42.734;23.298;2022-08-21T06:00:58;94658.28;;;20.53;100.00
22938;BME280;11634;42.734;23.298;2022-08-21T06:03:31;94655.22;;;20.49;100.00
22938;BME280;11634;42.734;23.298;2022-08-21T06:05:58;94654.44;;;20.42;100.00
22938;BME280;11634;42.734;23.298;2022-08-21T06:08:24;94645.56;;;20.18;100.00
22938;BME280;11634;42.734;23.298;2022-08-21T06:10:51;94666.31;;;20.21;100.00
22938;BME280;11634;42.734;23.298;2022-08-21T06:13:18;94643.72;;;20.12;100.00
22938;BME280;11634;42.734;23.298;2022-08-21T06:15:44;94653.53;;;19.92;100.00
22938;BME280;11634;42.734;23.298;2022-08-21T06:18:10;94645.00;;;19.90;100.00
22938;BME280;11634;42.734;23.298;2022-08-21T06:20:37;94631.78;;;19.77;100.00
22938;BME280;11634;42.734;23.298;2022-08-21T06:23:02;94638.44;;;20.12;100.00
22938;BME280;11634;42.734;23.298;2022-08-21T06:25:29;94617.41;;;20.49;100.00
22938;BME280;11634;42.734;23.298;2022-08-21T06:28:05;94645.81;;;20.73;100.00
22938;BME280;11634;42.734;23.298;2022-08-21T06:30:32;94648.50;;;21.10;100.00
22938;BME280;11634;42.734;23.298;2022-08-21T06:32:57;94670.63;;;21.22;100.00
22938;BME280;11634;42.734;23.298;2022-08-21T06:35:23;94681.47;;;21.14;100.00
22938;BME280;11634;42.734;23.298;2022-08-21T06:37:50;94669.63;;;21.16;100.00
22938;BME280;11634;42.734;23.298;2022-08-21T06:40:17;94685.16;;;21.43;100.00
22938;BME280;11634;42.734;23.298;2022-08-21T06:42:42;94676.56;;;21.54;100.00
22938;BME280;11634;42.734;23.298;2022-08-21T06:45:09;94691.66;;;21.78;100.00
22938;BME280;11634;42.734;23.298;2022-08-21T06:47:35;94678.25;;;22.22;100.00
22938;BME280;11634;42.734;23.298;2022-08-21T06:50:00;94702.91;;;22.64;100.00
22938;BME280;11634;42.734;23.298;2022-08-21T06:52:26;54402.53;;;-139.56;100.00
22938;BME280;11634;42.734;23.298;2022-08-21T06:54:52;54402.53;;;-139.56;100.00
22938;BME280;11634;42.734;23.298;2022-08-21T06:57:17;54402.53;;;-139.56;100.00
22938;BME280;11634;42.734;23.298;2022-08-21T06:59:46;54402.53;;;-139.56;100.00
22938;BME280;11634;42.734;23.298;2022-08-21T07:02:11;54402.53;;;-139.56;100.00
22938;BME280;11634;42.734;23.298;2022-08-21T07:04:38;54402.53;;;-139.56;100.00
22938;BME280;11634;42.734;23.298;2022-08-21T07:07:05;54402.53;;;-139.56;100.00
22938;BME280;11634;42.734;23.298;2022-08-21T07:09:30;54402.53;;;-139.56;100.00
22938;BME280;11634;42.734;23.298;2022-08-21T07:11:56;54402.53;;;-139.56;100.00
22938;BME280;11634;42.734;23.298;2022-08-21T07:14:22;54402.53;;;-139.56;100.00
22938;BME280;11634;42.734;23.298;2022-08-21T07:16:49;54402.53;;;-139.56;100.00
22938;BME280;11634;42.734;23.298;2022-08-21T07:19:14;54402.53;;;-139.56;100.00
22938;BME280;11634;42.734;23.298;2022-08-21T07:21:41;54402.53;;;-139.56;100.00
22938;BME280;11634;42.734;23.298;2022-08-21T07:24:08;54402.53;;;-139.56;100.00
22938;BME280;11634;42.734;23.298;2022-08-21T07:26:34;54402.53;;;-139.56;100.00
22938;BME280;11634;42.734;23.298;2022-08-21T07:29:00;54402.53;;;-139.56;100.00
22938;BME280;11634;42.734;23.298;2022-08-21T07:31:25;54402.53;;;-139.56;100.00
22938;BME280;11634;42.734;23.298;2022-08-21T07:33:51;54402.53;;;-139.56;100.00
22938;BME280;11634;42.734;23.298;2022-08-21T07:36:17;54402.53;;;-139.56;100.00
22938;BME280;11634;42.734;23.298;2022-08-21T07:38:46;54402.53;;;-139.56;100.00
22938;BME280;11634;42.734;23.298;2022-08-21T07:41:17;54402.53;;;-139.56;100.00
22938;BME280;11634;42.734;23.298;2022-08-21T07:43:43;54402.53;;;-139.56;100.00
22938;BME280;11634;42.734;23.298;2022-08-21T07:46:09;54402.53;;;-139.56;100.00
22938;BME280;11634;42.734;23.298;2022-08-21T07:48:35;54402.53;;;-139.56;100.00
22938;BME280;11634;42.734;23.298;2022-08-21T07:51:05;54402.53;;;-139.56;100.00
22938;BME280;11634;42.734;23.298;2022-08-21T07:53:32;54402.53;;;-139.56;100.00
22938;BME280;11634;42.734;23.298;2022-08-21T07:55:57;54402.53;;;-139.56;100.00
22938;BME280;11634;42.734;23.298;2022-08-21T07:58:23;54402.53;;;-139.56;100.00
22938;BME280;11634;42.734;23.298;2022-08-21T08:00:49;54402.53;;;-139.56;100.00
22938;BME280;11634;42.734;23.298;2022-08-21T08:03:14;54402.53;;;-139.56;100.00
22938;BME280;11634;42.734;23.298;2022-08-21T08:05:40;54402.53;;;-139.56;100.00
22938;BME280;11634;42.734;23.298;2022-08-21T08:08:06;54402.53;;;-139.56;100.00
22938;BME280;11634;42.734;23.298;2022-08-21T08:10:32;54402.53;;;-139.56;100.00
22938;BME280;11634;42.734;23.298;2022-08-21T08:12:57;54402.53;;;-139.56;100.00
22938;BME280;11634;42.734;23.298;2022-08-21T08:15:24;54402.53;;;-139.56;100.00
22938;BME280;11634;42.734;23.298;2022-08-21T08:17:51;54402.53;;;-139.56;100.00
22938;BME280;11634;42.734;23.298;2022-08-21T08:20:17;54402.53;;;-139.56;100.00
22938;BME280;11634;42.734;23.298;2022-08-21T08:22:44;54402.53;;;-139.56;100.00
22938;BME280;11634;42.734;23.298;2022-08-21T08:25:11;54402.53;;;-139.56;100.00
22938;BME280;11634;42.734;23.298;2022-08-21T08:27:38;54402.53;;;-139.56;100.00
22938;BME280;11634;42.734;23.298;2022-08-21T08:30:05;54402.53;;;-139.56;100.00
22938;BME280;11634;42.734;23.298;2022-08-21T08:32:32;54402.53;;;-139.56;100.00
22938;BME280;11634;42.734;23.298;2022-08-21T08:34:57;54402.53;;;-139.56;100.00
22938;BME280;11634;42.734;23.298;2022-08-21T08:37:25;54402.53;;;-139.56;100.00
22938;BME280;11634;42.734;23.298;2022-08-21T08:39:51;54402.53;;;-139.56;100.00
22938;BME280;11634;42.734;23.298;2022-08-21T08:42:33;54402.53;;;-139.56;100.00
22938;BME280;11634;42.734;23.298;2022-08-21T08:47:35;54402.53;;;-139.56;100.00
22938;BME280;11634;42.734;23.298;2022-08-21T08:52:30;54402.53;;;-139.56;100.00
22938;BME280;11634;42.734;23.298;2022-08-21T08:57:35;54402.53;;;-139.56;100.00
22938;BME280;11634;42.734;23.298;2022-08-21T09:00:08;54402.53;;;-139.56;100.00
22938;BME280;11634;42.734;23.298;2022-08-21T09:02:38;54402.53;;;-139.56;100.00
22938;BME280;11634;42.734;23.298;2022-08-21T09:05:06;54402.53;;;-139.56;100.00
22938;BME280;11634;42.734;23.298;2022-08-21T09:10:22;54402.53;;;-139.56;100.00
22938;BME280;11634;42.734;23.298;2022-08-21T09:21:32;54402.53;;;-139.56;100.00
22938;BME280;11634;42.734;23.298;2022-08-21T09:27:05;54402.53;;;-139.56;100.00
22938;BME280;11634;42.734;23.298;2022-08-21T09:29:35;54402.53;;;-139.56;100.00
22938;BME280;11634;42.734;23.298;2022-08-21T09:32:03;54402.53;;;-139.56;100.00
22938;BME280;11634;42.734;23.298;2022-08-21T09:34:30;54402.53;;;-139.56;100.00
22938;BME280;11634;42.734;23.298;2022-08-21T09:36:57;54402.53;;;-139.56;100.00
22938;BME280;11634;42.734;23.298;2022-08-21T09:39:29;54402.53;;;-139.56;100.00
22938;BME280;11634;42.734;23.298;2022-08-21T09:42:01;54402.53;;;-139.56;100.00
22938;BME280;11634;42.734;23.298;2022-08-21T09:44:30;54402.53;;;-139.56;100.00
22938;BME280;11634;42.734;23.298;2022-08-21T09:46:58;54402.53;;;-139.56;100.00
22938;BME280;11634;42.734;23.298;2022-08-21T09:49:43;54402.53;;;-139.56;100.00
22938;BME280;11634;42.734;23.298;2022-08-21T09:52:26;54402.53;;;-139.56;100.00
22938;BME280;11634;42.734;23.298;2022-08-21T09:54:54;54402.53;;;-139.56;100.00
22938;BME280;11634;42.734;23.298;2022-08-21T09:57:29;54402.53;;;-139.56;100.00
22938;BME280;11634;42.734;23.298;2022-08-21T10:00:15;54402.53;;;-139.56;100.00
22938;BME280;11634;42.734;23.298;2022-08-21T10:02:41;54402.53;;;-139.56;100.00
22938;BME280;11634;42.734;23.298;2022-08-21T10:05:16;54402.53;;;-139.56;100.00
22938;BME280;11634;42.734;23.298;2022-08-21T10:07:45;54402.53;;;-139.56;100.00
22938;BME280;11634;42.734;23.298;2022-08-21T10:10:21;54402.53;;;-139.56;100.00
22938;BME280;11634;42.734;23.298;2022-08-21T10:13:13;54402.53;;;-139.56;100.00
22938;BME280;11634;42.734;23.298;2022-08-21T10:21:22;54402.53;;;-139.56;100.00
22938;BME280;11634;42.734;23.298;2022-08-21T10:29:34;54402.53;;;-139.56;100.00
22938;BME280;11634;42.734;23.298;2022-08-21T10:45:33;54402.53;;;-139.56;100.00
22938;BME280;11634;42.734;23.298;2022-08-21T10:48:06;54402.53;;;-139.56;100.00
22938;BME280;11634;42.734;23.298;2022-08-21T10:54:25;54402.53;;;-139.56;100.00
22938;BME280;11634;42.734;23.298;2022-08-21T10:56:47;54402.53;;;-139.56;100.00
22938;BME280;11634;42.734;23.298;2022-08-21T11:02:19;54402.53;;;-139.56;100.00
22938;BME280;11634;42.734;23.298;2022-08-21T11:05:17;54402.53;;;-139.56;100.00
22938;BME280;11634;42.734;23.298;2022-08-21T11:07:54;54402.53;;;-139.56;100.00
22938;BME280;11634;42.734;23.298;2022-08-21T11:11:01;54402.53;;;-139.56;100.00
22938;BME280;11634;42.734;23.298;2022-08-21T11:13:51;54402.53;;;-139.56;100.00
22938;BME280;11634;42.734;23.298;2022-08-21T11:17:02;54402.53;;;-139.56;100.00
22938;BME280;11634;42.734;23.298;2022-08-21T11:19:43;54402.53;;;-139.56;100.00
22938;BME280;11634;42.734;23.298;2022-08-21T11:22:18;54402.53;;;-139.56;100.00
22938;BME280;11634;42.734;23.298;2022-08-21T11:30:00;54402.53;;;-139.56;100.00
22938;BME280;11634;42.734;23.298;2022-08-21T11:35:43;54402.53;;;-139.56;100.00
22938;BME280;11634;42.734;23.298;2022-08-21T11:38:22;54402.53;;;-139.56;100.00
22938;BME280;11634;42.734;23.298;2022-08-21T11:41:05;54402.53;;;-139.56;100.00
22938;BME280;11634;42.734;23.298;2022-08-21T11:43:40;54402.53;;;-139.56;100.00
22938;BME280;11634;42.734;23.298;2022-08-21T11:51:42;54402.53;;;-139.56;100.00
22938;BME280;11634;42.734;23.298;2022-08-21T11:54:28;54402.53;;;-139.56;100.00
22938;BME280;11634;42.734;23.298;2022-08-21T11:57:00;54402.53;;;-139.56;100.00
22938;BME280;11634;42.734;23.298;2022-08-21T12:02:11;54402.53;;;-139.56;100.00
22938;BME280;11634;42.734;23.298;2022-08-21T12:04:47;54402.53;;;-139.56;100.00
22938;BME280;11634;42.734;23.298;2022-08-21T12:07:40;54402.53;;;-139.56;100.00
22938;BME280;11634;42.734;23.298;2022-08-21T12:10:14;54402.53;;;-139.56;100.00
22938;BME280;11634;42.734;23.298;2022-08-21T12:12:43;54402.53;;;-139.56;100.00
22938;BME280;11634;42.734;23.298;2022-08-21T12:15:16;54402.53;;;-139.56;100.00
22938;BME280;11634;42.734;23.298;2022-08-21T12:18:06;54402.53;;;-139.56;100.00
22938;BME280;11634;42.734;23.298;2022-08-21T12:25:41;54402.53;;;-139.56;100.00
22938;BME280;11634;42.734;23.298;2022-08-21T12:28:14;54402.53;;;-139.56;100.00
22938;BME280;11634;42.734;23.298;2022-08-21T12:30:43;54402.53;;;-139.56;100.00
22938;BME280;11634;42.734;23.298;2022-08-21T12:33:34;54402.53;;;-139.56;100.00
22938;BME280;11634;42.734;23.298;2022-08-21T12:36:12;54402.53;;;-139.56;100.00
22938;BME280;11634;42.734;23.298;2022-08-21T12:38:55;54402.53;;;-139.56;100.00
22938;BME280;11634;42.734;23.298;2022-08-21T12:41:29;54402.53;;;-139.56;100.00
22938;BME280;11634;42.734;23.298;2022-08-21T12:44:20;54402.53;;;-139.56;100.00
22938;BME280;11634;42.734;23.298;2022-08-21T12:49:23;54402.53;;;-139.56;100.00
22938;BME280;11634;42.734;23.298;2022-08-21T12:54:42;54402.53;;;-139.56;100.00
22938;BME280;11634;42.734;23.298;2022-08-21T12:57:16;54402.53;;;-139.56;100.00
22938;BME280;11634;42.734;23.298;2022-08-21T12:59:43;54402.53;;;-139.56;100.00
22938;BME280;11634;42.734;23.298;2022-08-21T13:02:18;54402.53;;;-139.56;100.00
22938;BME280;11634;42.734;23.298;2022-08-21T13:04:46;54402.53;;;-139.56;100.00
22938;BME280;11634;42.734;23.298;2022-08-21T13:07:16;54402.53;;;-139.56;100.00
22938;BME280;11634;42.734;23.298;2022-08-21T13:09:51;54402.53;;;-139.56;100.00
22938;BME280;11634;42.734;23.298;2022-08-21T13:12:20;54402.53;;;-139.56;100.00
22938;BME280;11634;42.734;23.298;2022-08-21T13:14:47;54402.53;;;-139.56;100.00
22938;BME280;11634;42.734;23.298;2022-08-21T13:17:16;54402.53;;;-139.56;100.00
22938;BME280;11634;42.734;23.298;2022-08-21T13:19:55;54402.53;;;-139.56;100.00
22938;BME280;11634;42.734;23.298;2022-08-21T13:22:23;54402.53;;;-139.56;100.00
22938;BME280;11634;42.734;23.298;2022-08-21T13:24:49;54402.53;;;-139.56;100.00
22938;BME280;11634;42.734;23.298;2022-08-21T13:27:18;54402.53;;;-139.56;100.00
22938;BME280;11634;42.734;23.298;2022-08-21T13:29:44;54402.53;;;-139.56;100.00
22938;BME280;11634;42.734;23.298;2022-08-21T13:32:19;54402.53;;;-139.56;100.00
22938;BME280;11634;42.734;23.298;2022-08-21T13:34:46;54402.53;;;-139.56;100.00
22938;BME280;11634;42.734;23.298;2022-08-21T13:37:13;54402.53;;;-139.56;100.00
22938;BME280;11634;42.734;23.298;2022-08-21T13:39:39;54402.53;;;-139.56;100.00
22938;BME280;11634;42.734;23.298;2022-08-21T13:42:10;54402.53;;;-139.56;100.00
22938;BME280;11634;42.734;23.298;2022-08-21T13:44:44;54402.53;;;-139.56;100.00
22938;BME280;11634;42.734;23.298;2022-08-21T13:47:12;54402.53;;;-139.56;100.00
22938;BME280;11634;42.734;23.298;2022-08-21T13:49:49;54402.53;;;-139.56;100.00
22938;BME280;11634;42.734;23.298;2022-08-21T13:52:23;54402.53;;;-139.56;100.00
22938;BME280;11634;42.734;23.298;2022-08-21T13:55:08;54402.53;;;-139.56;100.00
22938;BME280;11634;42.734;23.298;2022-08-21T13:57:34;54402.53;;;-139.56;100.00
22938;BME280;11634;42.734;23.298;2022-08-21T14:02:45;54402.53;;;-139.56;100.00